createdAt,value
2019-03-01T00:00:43.002Z,9.03
2019-03-01T00:01:42.985Z,8.89
2019-03-01T00:02:42.990Z,8.88
2019-03-01T00:03:42.963Z,8.88
2019-03-01T00:04:42.950Z,8.99
2019-03-01T00:05:42.953Z,8.97
2019-03-01T00:06:42.930Z,8.94
2019-03-01T00:07:42.923Z,8.92
2019-03-01T00:08:42.937Z,8.89
2019-03-01T00:09:42.897Z,8.94
2019-03-01T00:10:42.884Z,8.95
2019-03-01T00:11:42.885Z,8.97
2019-03-01T00:12:42.862Z,8.94
2019-03-01T00:13:42.853Z,8.92
2019-03-01T00:14:42.859Z,8.97
2019-03-01T00:15:42.834Z,8.97
2019-03-01T00:16:42.821Z,8.97
2019-03-01T00:17:42.814Z,8.89
2019-03-01T00:18:42.800Z,8.92
2019-03-01T00:19:42.801Z,8.97
2019-03-01T00:20:42.774Z,9.02
2019-03-01T00:21:42.761Z,8.92
2019-03-01T00:22:42.753Z,8.91
2019-03-01T00:23:42.766Z,8.94
2019-03-01T00:24:42.725Z,8.89
2019-03-01T00:25:42.726Z,8.94
2019-03-01T00:26:42.706Z,8.87
2019-03-01T00:27:42.702Z,8.99
2019-03-01T00:28:42.687Z,8.89
2019-03-01T00:29:42.683Z,9.03
2019-03-01T00:30:42.683Z,8.97
2019-03-01T00:31:42.666Z,8.92
2019-03-01T00:32:42.644Z,9.11
2019-03-01T00:33:42.633Z,9.08
2019-03-01T00:34:42.622Z,9.04
2019-03-01T00:35:42.629Z,9.03
2019-03-01T00:36:42.602Z,9.08
2019-03-01T00:37:42.595Z,9.08
2019-03-01T00:38:42.569Z,9.04
2019-03-01T00:39:42.581Z,9.11
2019-03-01T00:40:42.562Z,9.08
2019-03-01T00:41:42.543Z,9.02
2019-03-01T00:42:42.543Z,9.06
2019-03-01T00:43:42.556Z,9.06
2019-03-01T00:44:42.509Z,9.08
2019-03-01T00:45:42.502Z,9.10
2019-03-01T00:46:42.489Z,9.04
2019-03-01T00:47:42.485Z,9.11
2019-03-01T00:48:42.462Z,9.11
2019-03-01T00:49:42.450Z,9.11
2019-03-01T00:50:42.440Z,9.11
2019-03-01T00:51:42.425Z,9.06
2019-03-01T00:52:42.422Z,9.04
2019-03-01T00:53:42.413Z,9.13
2019-03-01T00:54:42.432Z,9.10
2019-03-01T00:55:42.384Z,9.10
2019-03-01T00:56:42.382Z,9.04
2019-03-01T00:57:42.361Z,9.10
2019-03-01T00:58:42.353Z,9.08
2019-03-01T00:59:42.338Z,9.08
2019-03-01T01:00:42.346Z,9.11
2019-03-01T01:01:42.312Z,9.13
2019-03-01T01:02:42.305Z,9.11
2019-03-01T01:03:42.297Z,9.13
2019-03-01T01:04:42.295Z,9.13
2019-03-01T01:05:42.273Z,9.06
2019-03-01T01:06:42.283Z,9.10
2019-03-01T01:07:42.249Z,9.10
2019-03-01T01:08:42.237Z,9.08
2019-03-01T01:09:42.225Z,9.14
2019-03-01T01:10:42.217Z,9.08
2019-03-01T01:11:42.208Z,9.06
2019-03-01T01:12:42.208Z,9.11
2019-03-01T01:13:42.182Z,9.10
2019-03-01T01:14:42.173Z,9.08
2019-03-01T01:15:42.198Z,9.13
2019-03-01T01:16:42.167Z,9.11
2019-03-01T01:17:42.148Z,9.10
2019-03-01T01:18:42.129Z,9.06
2019-03-01T01:19:42.113Z,9.11
2019-03-01T01:20:42.105Z,9.11
2019-03-01T01:21:42.107Z,9.04
2019-03-01T01:22:42.094Z,9.06
2019-03-01T01:23:42.070Z,9.10
2019-03-01T01:24:42.057Z,9.11
2019-03-01T01:25:42.063Z,9.04
2019-03-01T01:26:42.058Z,9.08
2019-03-01T01:27:42.025Z,9.00
2019-03-01T01:28:42.044Z,8.99
2019-03-01T01:29:42.009Z,9.00
2019-03-01T01:30:41.993Z,9.06
2019-03-01T01:31:41.982Z,9.08
2019-03-01T01:32:41.990Z,9.08
2019-03-01T01:33:41.964Z,9.11
2019-03-01T01:34:41.949Z,8.99
2019-03-01T01:35:41.933Z,9.02
2019-03-01T01:36:41.928Z,8.89
2019-03-01T01:37:41.914Z,8.99
2019-03-01T01:38:41.918Z,8.91
2019-03-01T01:39:41.895Z,9.02
2019-03-01T01:40:41.921Z,8.92
2019-03-01T01:41:41.874Z,8.89
2019-03-01T01:42:41.877Z,8.99
2019-03-01T01:43:41.849Z,8.95
2019-03-01T01:44:41.855Z,8.95
2019-03-01T01:45:41.828Z,8.95
2019-03-01T01:46:48.866Z,8.92
2019-03-01T01:47:41.822Z,8.91
2019-03-01T01:48:41.793Z,8.95
2019-03-01T01:49:41.778Z,8.95
2019-03-01T01:50:41.781Z,8.84
2019-03-01T01:51:41.761Z,8.88
2019-03-01T01:52:41.749Z,8.94
2019-03-01T01:53:41.752Z,8.89
2019-03-01T01:54:41.725Z,8.85
2019-03-01T01:55:41.709Z,8.92
2019-03-01T01:56:41.701Z,8.89
2019-03-01T01:57:41.693Z,8.84
2019-03-01T01:58:41.681Z,8.87
2019-03-01T01:59:41.683Z,8.89
2019-03-01T02:00:41.653Z,8.87
2019-03-01T02:01:41.646Z,8.88
2019-03-01T02:02:41.640Z,8.84
2019-03-01T02:03:41.625Z,8.84
2019-03-01T02:04:41.610Z,8.82
2019-03-01T02:05:41.613Z,8.84
2019-03-01T02:06:41.593Z,8.81
2019-03-01T02:07:41.596Z,8.78
2019-03-01T02:08:41.574Z,8.84
2019-03-01T02:09:41.553Z,8.74
2019-03-01T02:10:41.546Z,8.82
2019-03-01T02:11:41.537Z,8.79
2019-03-01T02:12:41.538Z,8.76
2019-03-01T02:13:41.514Z,8.74
2019-03-01T02:14:41.498Z,8.81
2019-03-01T02:15:41.489Z,8.73
2019-03-01T02:16:41.493Z,8.74
2019-03-01T02:17:41.534Z,8.84
2019-03-01T02:18:41.461Z,8.78
2019-03-01T02:19:41.467Z,8.73
2019-03-01T02:20:41.433Z,8.71
2019-03-01T02:21:41.425Z,8.76
2019-03-01T02:22:41.426Z,8.74
2019-03-01T02:23:41.422Z,8.74
2019-03-01T02:24:41.390Z,8.74
2019-03-01T02:25:41.381Z,8.76
2019-03-01T02:26:41.365Z,8.73
2019-03-01T02:27:41.357Z,8.70
2019-03-01T02:28:41.346Z,8.73
2019-03-01T02:29:41.365Z,8.73
2019-03-01T02:30:41.321Z,8.69
2019-03-01T02:31:41.318Z,8.66
2019-03-01T02:32:41.302Z,8.71
2019-03-01T02:33:41.293Z,8.74
2019-03-01T02:34:41.282Z,8.67
2019-03-01T02:35:41.282Z,8.74
2019-03-01T02:36:41.276Z,8.74
2019-03-01T02:37:41.284Z,8.71
2019-03-01T02:38:41.229Z,8.63
2019-03-01T02:39:41.236Z,8.74
2019-03-01T02:40:41.221Z,8.67
2019-03-01T02:41:41.204Z,8.74
2019-03-01T02:42:41.221Z,8.74
2019-03-01T02:43:41.240Z,8.71
2019-03-01T02:44:41.220Z,8.70
2019-03-01T02:45:41.158Z,8.67
2019-03-01T02:46:41.150Z,8.66
2019-03-01T02:47:41.162Z,8.66
2019-03-01T02:48:41.143Z,8.69
2019-03-01T02:49:41.109Z,8.63
2019-03-01T02:50:41.133Z,8.61
2019-03-01T02:51:41.089Z,8.64
2019-03-01T02:52:41.080Z,8.66
2019-03-01T02:53:41.061Z,8.67
2019-03-01T02:54:41.072Z,8.67
2019-03-01T02:55:41.063Z,8.73
2019-03-01T02:56:41.036Z,8.71
2019-03-01T02:57:41.026Z,8.66
2019-03-01T02:58:41.017Z,8.74
2019-03-01T02:59:41.024Z,8.67
2019-03-01T03:00:40.996Z,8.66
2019-03-01T03:01:41.071Z,8.73
2019-03-01T03:02:40.963Z,8.67
2019-03-01T03:03:40.959Z,8.66
2019-03-01T03:04:40.961Z,8.64
2019-03-01T03:05:40.977Z,8.55
2019-03-01T03:06:40.917Z,8.64
2019-03-01T03:07:40.906Z,8.61
2019-03-01T03:08:40.900Z,8.58
2019-03-01T03:09:40.886Z,8.58
2019-03-01T03:10:40.895Z,8.51
2019-03-01T03:11:40.864Z,8.49
2019-03-01T03:12:40.853Z,8.48
2019-03-01T03:13:40.844Z,8.52
2019-03-01T03:14:40.834Z,8.55
2019-03-01T03:15:40.817Z,8.45
2019-03-01T03:16:40.817Z,8.45
2019-03-01T03:17:40.798Z,8.45
2019-03-01T03:18:40.823Z,8.46
2019-03-01T03:19:40.774Z,8.46
2019-03-01T03:20:40.769Z,8.45
2019-03-01T03:21:40.762Z,8.48
2019-03-01T03:22:40.760Z,8.46
2019-03-01T03:23:40.752Z,8.44
2019-03-01T03:24:40.717Z,8.44
2019-03-01T03:25:40.720Z,8.44
2019-03-01T03:26:40.708Z,8.42
2019-03-01T03:27:40.693Z,8.48
2019-03-01T03:28:40.692Z,8.45
2019-03-01T03:29:40.666Z,8.44
2019-03-01T03:30:40.663Z,8.44
2019-03-01T03:31:40.639Z,8.45
2019-03-01T03:32:40.627Z,8.45
2019-03-01T03:33:40.624Z,8.45
2019-03-01T03:34:40.637Z,8.42
2019-03-01T03:35:40.594Z,8.49
2019-03-01T03:36:40.588Z,8.42
2019-03-01T03:37:40.576Z,8.46
2019-03-01T03:38:40.565Z,8.44
2019-03-01T03:39:40.575Z,8.46
2019-03-01T03:40:40.544Z,8.51
2019-03-01T03:41:40.533Z,8.49
2019-03-01T03:42:40.520Z,8.52
2019-03-01T03:43:40.512Z,8.45
2019-03-01T03:44:40.510Z,8.49
2019-03-01T03:45:40.492Z,8.55
2019-03-01T03:46:40.488Z,8.48
2019-03-01T03:47:40.467Z,8.45
2019-03-01T03:48:40.454Z,8.60
2019-03-01T03:49:40.438Z,8.51
2019-03-01T03:50:40.447Z,8.45
2019-03-01T03:51:40.430Z,8.56
2019-03-01T03:52:40.419Z,8.45
2019-03-01T03:53:40.394Z,8.48
2019-03-01T03:54:40.421Z,8.42
2019-03-01T03:55:40.391Z,8.44
2019-03-01T03:56:40.389Z,8.56
2019-03-01T03:57:40.364Z,8.56
2019-03-01T03:58:40.341Z,8.55
2019-03-01T03:59:40.333Z,8.52
2019-03-01T04:00:40.325Z,8.52
2019-03-01T04:01:40.308Z,8.44
2019-03-01T04:02:40.325Z,8.44
2019-03-01T04:03:40.281Z,8.49
2019-03-01T04:04:40.277Z,8.44
2019-03-01T04:05:40.290Z,8.53
2019-03-01T04:06:40.252Z,8.46
2019-03-01T04:07:40.252Z,8.53
2019-03-01T04:08:40.247Z,8.46
2019-03-01T04:09:40.219Z,8.53
2019-03-01T04:10:40.209Z,8.53
2019-03-01T04:11:40.213Z,8.44
2019-03-01T04:12:40.189Z,8.45
2019-03-01T04:13:40.168Z,8.44
2019-03-01T04:14:40.166Z,8.41
2019-03-01T04:15:40.151Z,8.42
2019-03-01T04:16:40.143Z,8.44
2019-03-01T04:17:40.140Z,8.45
2019-03-01T04:18:40.117Z,8.56
2019-03-01T04:19:40.110Z,8.48
2019-03-01T04:20:40.098Z,8.46
2019-03-01T04:21:40.096Z,8.51
2019-03-01T04:22:40.090Z,8.48
2019-03-01T04:23:40.063Z,8.48
2019-03-01T04:24:40.052Z,8.48
2019-03-01T04:25:40.042Z,8.49
2019-03-01T04:26:40.031Z,8.45
2019-03-01T04:27:40.039Z,8.44
2019-03-01T04:28:40.038Z,8.42
2019-03-01T04:29:39.997Z,8.45
2019-03-01T04:30:39.985Z,8.42
2019-03-01T04:31:39.974Z,8.42
2019-03-01T04:32:39.961Z,8.46
2019-03-01T04:33:39.983Z,8.48
2019-03-01T04:34:39.941Z,8.41
2019-03-01T04:35:39.925Z,8.45
2019-03-01T04:36:39.935Z,8.45
2019-03-01T04:37:39.911Z,8.45
2019-03-01T04:38:39.894Z,8.46
2019-03-01T04:39:39.893Z,8.45
2019-03-01T04:40:39.874Z,8.46
2019-03-01T04:41:39.862Z,8.46
2019-03-01T04:42:39.849Z,8.44
2019-03-01T04:43:39.857Z,8.41
2019-03-01T04:44:39.860Z,8.44
2019-03-01T04:45:39.813Z,8.49
2019-03-01T04:46:39.801Z,8.38
2019-03-01T04:47:39.793Z,8.44
2019-03-01T04:48:39.785Z,8.44
2019-03-01T04:49:39.769Z,8.44
2019-03-01T04:50:39.779Z,8.51
2019-03-01T04:51:40.409Z,8.46
2019-03-01T04:52:39.741Z,8.46
2019-03-01T04:53:39.737Z,8.45
2019-03-01T04:54:39.718Z,8.45
2019-03-01T04:55:39.723Z,8.45
2019-03-01T04:56:39.706Z,8.44
2019-03-01T04:57:39.685Z,8.45
2019-03-01T04:58:39.674Z,8.45
2019-03-01T04:59:39.661Z,8.46
2019-03-01T05:00:39.650Z,8.49
2019-03-01T05:01:39.649Z,8.49
2019-03-01T05:02:39.641Z,8.46
2019-03-01T05:03:39.617Z,8.46
2019-03-01T05:04:39.605Z,8.42
2019-03-01T05:05:39.593Z,8.46
2019-03-01T05:06:39.620Z,8.44
2019-03-01T05:07:39.574Z,8.44
2019-03-01T05:08:39.557Z,8.41
2019-03-01T05:09:39.567Z,8.38
2019-03-01T05:10:39.545Z,8.41
2019-03-01T05:11:39.533Z,8.45
2019-03-01T05:12:39.531Z,8.41
2019-03-01T05:13:39.505Z,8.42
2019-03-01T05:14:39.506Z,8.36
2019-03-01T05:15:39.493Z,8.36
2019-03-01T05:16:39.470Z,8.36
2019-03-01T05:17:39.457Z,8.36
2019-03-01T05:18:39.450Z,8.42
2019-03-01T05:19:39.467Z,8.38
2019-03-01T05:20:39.432Z,8.31
2019-03-01T05:21:39.420Z,8.37
2019-03-01T05:22:39.407Z,8.37
2019-03-01T05:23:39.389Z,8.36
2019-03-01T05:24:39.382Z,8.34
2019-03-01T05:25:39.384Z,8.38
2019-03-01T05:26:39.357Z,8.38
2019-03-01T05:27:39.369Z,8.42
2019-03-01T05:28:39.338Z,8.33
2019-03-01T05:29:39.321Z,8.44
2019-03-01T05:30:39.326Z,8.33
2019-03-01T05:31:39.301Z,8.36
2019-03-01T05:32:39.319Z,8.31
2019-03-01T05:33:39.297Z,8.34
2019-03-01T05:34:39.269Z,8.34
2019-03-01T05:35:39.286Z,8.36
2019-03-01T05:36:39.250Z,8.42
2019-03-01T05:37:39.244Z,8.44
2019-03-01T05:38:39.245Z,8.34
2019-03-01T05:39:39.213Z,8.31
2019-03-01T05:40:39.207Z,8.34
2019-03-01T05:41:39.194Z,8.41
2019-03-01T05:42:39.185Z,8.33
2019-03-01T05:43:39.173Z,8.33
2019-03-01T05:44:39.220Z,8.38
2019-03-01T05:45:39.167Z,8.31
2019-03-01T05:46:39.163Z,8.38
2019-03-01T05:47:39.159Z,8.36
2019-03-01T05:48:39.125Z,8.31
2019-03-01T05:49:39.110Z,8.33
2019-03-01T05:50:39.089Z,8.34
2019-03-01T05:51:39.083Z,8.37
2019-03-01T05:52:39.093Z,8.37
2019-03-01T05:53:39.097Z,8.38
2019-03-01T05:54:39.050Z,8.33
2019-03-01T05:55:39.067Z,8.27
2019-03-01T05:56:39.026Z,8.28
2019-03-01T05:57:39.017Z,8.28
2019-03-01T05:58:39.034Z,8.30
2019-03-01T05:59:39.005Z,8.24
2019-03-01T06:00:38.985Z,8.27
2019-03-01T06:01:38.987Z,8.28
2019-03-01T06:02:38.964Z,8.33
2019-03-01T06:03:38.949Z,8.28
2019-03-01T06:04:38.969Z,8.31
2019-03-01T06:05:38.925Z,8.27
2019-03-01T06:06:38.916Z,8.24
2019-03-01T06:07:38.902Z,8.30
2019-03-01T06:08:38.902Z,8.34
2019-03-01T06:09:38.887Z,8.34
2019-03-01T06:10:38.902Z,8.34
2019-03-01T06:11:38.864Z,8.30
2019-03-01T06:12:38.860Z,8.31
2019-03-01T06:13:38.837Z,8.36
2019-03-01T06:14:38.826Z,8.34
2019-03-01T06:15:38.834Z,8.34
2019-03-01T06:16:40.226Z,8.46
2019-03-01T06:17:38.799Z,8.30
2019-03-01T06:18:38.782Z,8.31
2019-03-01T06:19:38.776Z,8.33
2019-03-01T06:20:38.757Z,8.31
2019-03-01T06:21:38.773Z,8.31
2019-03-01T06:22:38.745Z,8.38
2019-03-01T06:23:38.729Z,8.33
2019-03-01T06:24:38.713Z,8.36
2019-03-01T06:25:38.710Z,8.33
2019-03-01T06:26:38.702Z,8.30
2019-03-01T06:27:38.707Z,8.30
2019-03-01T06:28:38.677Z,8.36
2019-03-01T06:29:38.657Z,8.28
2019-03-01T06:30:38.647Z,8.28
2019-03-01T06:31:38.637Z,8.31
2019-03-01T06:32:38.638Z,8.36
2019-03-01T06:33:38.630Z,8.36
2019-03-01T06:34:38.609Z,8.45
2019-03-01T06:35:38.595Z,8.30
2019-03-01T06:36:38.579Z,8.37
2019-03-01T06:37:38.571Z,8.38
2019-03-01T06:38:38.559Z,8.36
2019-03-01T06:39:38.561Z,8.33
2019-03-01T06:40:38.540Z,8.31
2019-03-01T06:41:38.521Z,8.36
2019-03-01T06:42:38.525Z,8.33
2019-03-01T06:43:38.501Z,8.30
2019-03-01T06:44:38.521Z,8.34
2019-03-01T06:45:38.483Z,8.44
2019-03-01T06:46:38.470Z,8.26
2019-03-01T06:47:38.497Z,8.33
2019-03-01T06:48:38.446Z,8.36
2019-03-01T06:49:38.457Z,8.37
2019-03-01T06:50:38.421Z,8.36
2019-03-01T06:51:38.425Z,8.36
2019-03-01T06:52:38.404Z,8.36
2019-03-01T06:53:38.401Z,8.27
2019-03-01T06:54:38.382Z,8.37
2019-03-01T06:55:38.381Z,8.37
2019-03-01T06:56:38.358Z,8.41
2019-03-01T06:57:38.349Z,8.41
2019-03-01T06:58:38.343Z,8.37
2019-03-01T06:59:38.326Z,8.33
2019-03-01T07:00:38.321Z,8.37
2019-03-01T07:01:38.318Z,8.38
2019-03-01T07:02:38.288Z,8.38
2019-03-01T07:03:38.279Z,8.38
2019-03-01T07:04:38.270Z,8.41
2019-03-01T07:05:38.263Z,8.41
2019-03-01T07:06:38.241Z,8.42
2019-03-01T07:07:38.248Z,8.44
2019-03-01T07:08:38.221Z,8.38
2019-03-01T07:09:38.215Z,8.46
2019-03-01T07:10:38.224Z,8.45
2019-03-01T07:11:38.208Z,8.44
2019-03-01T07:12:38.177Z,8.34
2019-03-01T07:13:38.169Z,8.51
2019-03-01T07:14:38.158Z,8.44
2019-03-01T07:15:38.145Z,8.42
2019-03-01T07:16:38.135Z,8.45
2019-03-01T07:17:38.142Z,8.48
2019-03-01T07:18:38.121Z,8.48
2019-03-01T07:19:38.105Z,8.44
2019-03-01T07:20:38.089Z,8.48
2019-03-01T07:21:38.076Z,8.41
2019-03-01T07:22:38.066Z,8.49
2019-03-01T07:23:38.092Z,8.41
2019-03-01T07:24:38.046Z,8.41
2019-03-01T07:25:38.036Z,8.46
2019-03-01T07:26:38.021Z,8.42
2019-03-01T07:27:38.019Z,8.48
2019-03-01T07:28:38.008Z,8.46
2019-03-01T07:29:38.001Z,8.45
2019-03-01T07:30:37.977Z,8.49
2019-03-01T07:31:37.969Z,8.44
2019-03-01T07:32:37.962Z,8.45
2019-03-01T07:33:37.946Z,8.45
2019-03-01T07:34:37.949Z,8.51
2019-03-01T07:35:37.922Z,8.53
2019-03-01T07:36:37.909Z,8.51
2019-03-01T07:37:37.907Z,8.51
2019-03-01T07:38:37.889Z,8.49
2019-03-01T07:39:37.926Z,8.48
2019-03-01T07:40:37.865Z,8.53
2019-03-01T07:41:37.862Z,8.53
2019-03-01T07:42:37.851Z,8.55
2019-03-01T07:43:37.836Z,8.51
2019-03-01T07:44:37.833Z,8.60
2019-03-01T07:45:37.806Z,8.60
2019-03-01T07:46:37.809Z,8.58
2019-03-01T07:47:44.837Z,8.56
2019-03-01T07:48:37.788Z,8.67
2019-03-01T07:49:37.766Z,8.64
2019-03-01T07:50:37.765Z,8.67
2019-03-01T07:51:37.747Z,8.70
2019-03-01T07:52:37.735Z,8.73
2019-03-01T07:53:41.870Z,8.69
2019-03-01T07:54:37.709Z,8.73
2019-03-01T07:55:37.720Z,8.71
2019-03-01T07:56:39.848Z,8.73
2019-03-01T07:57:37.678Z,8.70
2019-03-01T07:58:37.669Z,8.69
2019-03-01T07:59:39.302Z,8.70
2019-03-01T08:00:37.641Z,8.78
2019-03-01T08:01:37.641Z,8.78
2019-03-01T08:02:39.744Z,8.79
2019-03-01T08:03:37.632Z,8.74
2019-03-01T08:04:37.593Z,8.87
2019-03-01T08:05:39.424Z,8.85
2019-03-01T08:06:37.586Z,8.85
2019-03-01T08:07:37.565Z,8.79
2019-03-01T08:08:38.835Z,8.82
2019-03-01T08:09:37.562Z,8.74
2019-03-01T08:10:37.532Z,8.78
2019-03-01T08:11:37.538Z,8.84
2019-03-01T08:12:38.729Z,8.78
2019-03-01T08:13:37.499Z,8.87
2019-03-01T08:14:37.481Z,8.87
2019-03-01T08:15:40.965Z,8.85
2019-03-01T08:16:38.489Z,8.89
2019-03-01T08:17:37.449Z,8.89
2019-03-01T08:18:40.178Z,8.88
2019-03-01T08:19:38.429Z,8.91
2019-03-01T08:20:37.422Z,8.99
2019-03-01T08:21:37.405Z,8.94
2019-03-01T08:22:47.620Z,8.94
2019-03-01T08:23:38.386Z,8.92
2019-03-01T08:24:37.378Z,8.87
2019-03-01T08:25:37.364Z,8.85
2019-03-01T08:26:37.353Z,8.87
2019-03-01T08:27:37.353Z,8.92
2019-03-01T08:28:37.352Z,8.89
2019-03-01T08:29:37.337Z,8.92
2019-03-01T08:30:37.314Z,8.94
2019-03-01T08:31:37.303Z,8.92
2019-03-01T08:32:37.285Z,8.95
2019-03-01T08:33:42.384Z,8.91
2019-03-01T08:34:38.288Z,8.88
2019-03-01T08:35:37.274Z,8.94
2019-03-01T08:36:38.594Z,8.87
2019-03-01T08:37:37.227Z,8.89
2019-03-01T08:38:37.214Z,8.94
2019-03-01T08:39:39.817Z,8.95
2019-03-01T08:40:37.220Z,8.88
2019-03-01T08:41:37.184Z,8.91
2019-03-01T08:42:37.430Z,8.95
2019-03-01T08:43:37.165Z,8.85
2019-03-01T08:44:37.154Z,8.94
2019-03-01T08:45:37.141Z,8.88
2019-03-01T08:46:37.141Z,8.94
2019-03-01T08:47:37.117Z,8.97
2019-03-01T08:48:37.110Z,8.95
2019-03-01T08:49:37.137Z,8.88
2019-03-01T08:50:37.085Z,8.92
2019-03-01T08:51:37.074Z,8.85
2019-03-01T08:52:40.049Z,8.85
2019-03-01T08:53:37.052Z,8.88
2019-03-01T08:54:37.053Z,8.84
2019-03-01T08:55:38.942Z,8.89
2019-03-01T08:56:37.021Z,8.74
2019-03-01T08:57:43.959Z,8.79
2019-03-01T08:58:41.464Z,8.78
2019-03-01T08:59:36.984Z,8.76
2019-03-01T09:00:36.972Z,8.73
2019-03-01T09:01:36.980Z,8.74
2019-03-01T09:02:36.956Z,8.73
2019-03-01T09:03:37.000Z,8.79
2019-03-01T09:04:37.913Z,8.73
2019-03-01T09:05:36.917Z,8.71
2019-03-01T09:06:36.920Z,8.81
2019-03-01T09:07:36.909Z,8.73
2019-03-01T09:08:36.887Z,8.82
2019-03-01T09:09:36.874Z,8.73
2019-03-01T09:10:36.866Z,8.69
2019-03-01T09:11:36.849Z,8.78
2019-03-01T09:12:36.853Z,8.70
2019-03-01T09:13:36.833Z,8.71
2019-03-01T09:14:36.816Z,8.70
2019-03-01T09:15:37.002Z,8.78
2019-03-01T09:16:36.793Z,8.74
2019-03-01T09:17:36.794Z,8.79
2019-03-01T09:18:36.792Z,8.76
2019-03-01T09:19:36.764Z,8.76
2019-03-01T09:20:38.608Z,8.70
2019-03-01T09:21:36.732Z,8.78
2019-03-01T09:22:36.728Z,8.74
2019-03-01T09:23:36.714Z,8.76
2019-03-01T09:24:36.718Z,8.79
2019-03-01T09:25:36.710Z,8.73
2019-03-01T09:26:36.687Z,8.73
2019-03-01T09:27:36.674Z,8.78
2019-03-01T09:28:39.538Z,8.76
2019-03-01T09:29:41.654Z,8.70
2019-03-01T09:30:40.296Z,8.74
2019-03-01T09:31:37.629Z,8.73
2019-03-01T09:32:36.616Z,8.74
2019-03-01T09:33:36.604Z,8.81
2019-03-01T09:34:36.604Z,8.73
2019-03-01T09:35:39.643Z,8.81
2019-03-01T09:36:37.568Z,8.74
2019-03-01T09:37:36.565Z,8.79
2019-03-01T09:38:39.515Z,8.76
2019-03-01T09:39:37.569Z,8.69
2019-03-01T09:40:36.853Z,8.73
2019-03-01T09:41:40.112Z,8.71
2019-03-01T09:42:36.513Z,8.74
2019-03-01T09:43:36.504Z,8.71
2019-03-01T09:44:38.337Z,8.70
2019-03-01T09:45:36.871Z,8.74
2019-03-01T09:46:36.452Z,8.79
2019-03-01T09:47:36.973Z,8.74
2019-03-01T09:48:36.432Z,8.79
2019-03-01T09:49:36.432Z,8.73
2019-03-01T09:50:38.121Z,8.70
2019-03-01T09:51:36.416Z,8.66
2019-03-01T09:52:36.397Z,8.70
2019-03-01T09:53:36.377Z,8.70
2019-03-01T09:54:36.369Z,8.70
2019-03-01T09:55:37.651Z,8.63
2019-03-01T09:56:36.364Z,8.74
2019-03-01T09:57:36.336Z,8.74
2019-03-01T09:58:36.321Z,8.79
2019-03-01T09:59:36.316Z,8.76
2019-03-01T10:00:36.300Z,8.76
2019-03-01T10:01:36.312Z,8.74
2019-03-01T10:02:36.297Z,8.74
2019-03-01T10:03:36.269Z,8.76
2019-03-01T10:04:36.262Z,8.76
2019-03-01T10:05:36.244Z,8.73
2019-03-01T10:06:38.376Z,8.76
2019-03-01T10:07:36.241Z,8.73
2019-03-01T10:08:36.218Z,8.84
2019-03-01T10:09:36.200Z,8.82
2019-03-01T10:10:36.193Z,8.95
2019-03-01T10:11:36.187Z,8.89
2019-03-01T10:12:36.172Z,9.03
2019-03-01T10:14:36.157Z,8.88
2019-03-01T10:15:36.133Z,8.91
2019-03-01T10:16:36.132Z,8.94
2019-03-01T10:17:36.113Z,9.08
2019-03-01T10:18:36.104Z,9.10
2019-03-01T10:19:36.100Z,9.10
2019-03-01T10:20:36.080Z,9.08
2019-03-01T10:21:36.069Z,9.13
2019-03-01T10:22:36.057Z,9.10
2019-03-01T10:23:36.045Z,9.10
2019-03-01T10:24:36.044Z,9.10
2019-03-01T10:25:36.030Z,9.29
2019-03-01T10:26:36.016Z,9.26
2019-03-01T10:27:36.001Z,9.22
2019-03-01T10:28:35.997Z,9.25
2019-03-01T10:29:35.983Z,9.10
2019-03-01T10:30:35.972Z,9.10
2019-03-01T10:31:35.957Z,9.06
2019-03-01T10:32:35.944Z,9.08
2019-03-01T10:33:35.952Z,9.13
2019-03-01T10:34:35.921Z,9.23
2019-03-01T10:35:35.923Z,9.18
2019-03-01T10:36:35.904Z,9.19
2019-03-01T10:37:35.889Z,9.32
2019-03-01T10:38:35.878Z,9.21
2019-03-01T10:39:35.880Z,9.43
2019-03-01T10:40:35.868Z,9.55
2019-03-01T10:41:35.865Z,9.56
2019-03-01T10:42:35.832Z,9.62
2019-03-01T10:43:35.825Z,9.76
2019-03-01T10:44:35.829Z,9.80
2019-03-01T10:45:35.800Z,9.77
2019-03-01T10:46:35.788Z,9.80
2019-03-01T10:47:35.797Z,9.72
2019-03-01T10:48:35.769Z,9.74
2019-03-01T10:49:35.757Z,9.77
2019-03-01T10:50:35.753Z,9.77
2019-03-01T10:51:35.736Z,9.65
2019-03-01T10:52:35.722Z,9.58
2019-03-01T10:53:35.716Z,9.58
2019-03-01T10:54:35.702Z,9.51
2019-03-01T10:55:35.706Z,9.40
2019-03-01T10:56:35.677Z,9.44
2019-03-01T10:57:35.668Z,9.41
2019-03-01T10:58:35.660Z,9.44
2019-03-01T10:59:35.657Z,9.44
2019-03-01T11:00:35.628Z,9.47
2019-03-01T11:01:35.638Z,9.55
2019-03-01T11:02:35.614Z,9.54
2019-03-01T11:03:35.600Z,9.50
2019-03-01T11:04:35.588Z,9.61
2019-03-01T11:05:35.588Z,9.61
2019-03-01T11:06:35.578Z,9.68
2019-03-01T11:07:35.556Z,9.66
2019-03-01T11:08:35.556Z,9.73
2019-03-01T11:09:35.536Z,9.69
2019-03-01T11:10:35.524Z,9.65
2019-03-01T11:11:35.520Z,9.65
2019-03-01T11:12:35.502Z,9.56
2019-03-01T11:13:35.502Z,9.47
2019-03-01T11:14:35.485Z,9.48
2019-03-01T11:15:35.472Z,9.48
2019-03-01T11:16:35.458Z,9.54
2019-03-01T11:17:35.448Z,9.44
2019-03-01T11:18:35.444Z,9.44
2019-03-01T11:19:35.424Z,9.37
2019-03-01T11:20:35.411Z,9.39
2019-03-01T11:21:35.396Z,9.34
2019-03-01T11:22:35.388Z,9.36
2019-03-01T11:23:35.400Z,9.34
2019-03-01T11:24:35.365Z,9.22
2019-03-01T11:25:35.356Z,9.28
2019-03-01T11:26:35.339Z,9.14
2019-03-01T11:27:35.333Z,9.03
2019-03-01T11:28:35.321Z,9.06
2019-03-01T11:29:35.331Z,9.02
2019-03-01T11:30:35.313Z,8.97
2019-03-01T11:31:35.288Z,8.87
2019-03-01T11:32:35.280Z,8.97
2019-03-01T11:33:35.267Z,8.79
2019-03-01T11:34:36.252Z,8.78
2019-03-01T11:35:35.255Z,8.66
2019-03-01T11:36:35.231Z,8.49
2019-03-01T11:37:35.223Z,8.41
2019-03-01T11:38:35.212Z,8.28
2019-03-01T11:39:35.220Z,8.30
2019-03-01T11:40:35.190Z,8.31
2019-03-01T11:41:35.184Z,8.16
2019-03-01T11:42:35.184Z,7.97
2019-03-01T11:43:35.157Z,7.83
2019-03-01T11:44:35.141Z,7.70
2019-03-01T11:45:35.150Z,7.69
2019-03-01T11:46:35.120Z,7.53
2019-03-01T11:47:35.121Z,7.53
2019-03-01T11:48:35.107Z,7.51
2019-03-01T11:49:35.090Z,7.36
2019-03-01T11:50:35.100Z,7.33
2019-03-01T11:51:35.060Z,7.18
2019-03-01T11:52:35.058Z,7.14
2019-03-01T11:53:35.048Z,7.18
2019-03-01T11:54:35.031Z,7.11
2019-03-01T11:55:35.019Z,7.07
2019-03-01T11:56:35.022Z,7.11
2019-03-01T11:57:35.000Z,7.05
2019-03-01T11:58:34.988Z,7.05
2019-03-01T11:59:34.994Z,6.99
2019-03-01T12:00:34.964Z,6.89
2019-03-01T12:01:34.955Z,6.89
2019-03-01T12:02:34.943Z,6.72
2019-03-01T12:03:34.946Z,6.82
2019-03-01T12:04:34.932Z,6.70
2019-03-01T12:05:34.917Z,6.67
2019-03-01T12:06:34.903Z,6.67
2019-03-01T12:07:34.892Z,6.66
2019-03-01T12:08:34.940Z,6.75
2019-03-01T12:09:34.866Z,6.79
2019-03-01T12:10:34.856Z,6.78
2019-03-01T12:11:34.856Z,6.78
2019-03-01T12:12:34.842Z,6.70
2019-03-01T12:13:34.819Z,6.64
2019-03-01T12:14:34.826Z,6.64
2019-03-01T12:15:34.812Z,6.66
2019-03-01T12:16:34.804Z,6.60
2019-03-01T12:17:34.784Z,6.60
2019-03-01T12:18:34.764Z,6.62
2019-03-01T12:19:34.756Z,6.59
2019-03-01T12:20:34.744Z,6.45
2019-03-01T12:21:34.734Z,6.51
2019-03-01T12:22:34.728Z,6.49
2019-03-01T12:23:34.711Z,6.56
2019-03-01T12:24:34.699Z,6.56
2019-03-01T12:25:34.689Z,6.51
2019-03-01T12:26:34.687Z,6.60
2019-03-01T12:27:34.664Z,6.46
2019-03-01T12:28:34.660Z,6.51
2019-03-01T12:29:34.643Z,6.45
2019-03-01T12:30:34.631Z,6.45
2019-03-01T12:31:34.628Z,6.44
2019-03-01T12:32:34.616Z,6.46
2019-03-01T12:33:34.618Z,6.36
2019-03-01T12:34:34.587Z,6.38
2019-03-01T12:35:34.598Z,6.42
2019-03-01T12:36:34.564Z,6.33
2019-03-01T12:37:34.551Z,6.46
2019-03-01T12:38:34.545Z,6.31
2019-03-01T12:39:34.558Z,6.30
2019-03-01T12:40:34.523Z,6.28
2019-03-01T12:41:34.519Z,6.27
2019-03-01T12:42:34.499Z,6.24
2019-03-01T12:43:34.491Z,6.26
2019-03-01T12:44:34.475Z,6.19
2019-03-01T12:45:34.475Z,6.19
2019-03-01T12:46:34.475Z,6.19
2019-03-01T12:47:34.456Z,6.28
2019-03-01T12:48:34.440Z,6.20
2019-03-01T12:49:34.419Z,6.19
2019-03-01T12:50:34.422Z,6.20
2019-03-01T12:51:34.419Z,6.22
2019-03-01T12:52:34.388Z,6.27
2019-03-01T12:53:34.383Z,6.17
2019-03-01T12:54:34.363Z,6.16
2019-03-01T12:55:34.354Z,6.12
2019-03-01T12:56:34.340Z,6.05
2019-03-01T12:57:34.356Z,6.19
2019-03-01T12:58:34.320Z,6.04
2019-03-01T12:59:34.342Z,6.16
2019-03-01T13:00:34.295Z,6.14
2019-03-01T13:01:34.299Z,6.12
2019-03-01T13:02:34.889Z,6.07
2019-03-01T13:03:34.266Z,6.14
2019-03-01T13:04:34.251Z,6.12
2019-03-01T13:05:34.264Z,6.07
2019-03-01T13:06:35.386Z,6.05
2019-03-01T13:07:34.235Z,6.08
2019-03-01T13:08:34.210Z,6.07
2019-03-01T13:09:34.200Z,6.04
2019-03-01T13:10:36.667Z,6.07
2019-03-01T13:11:35.180Z,6.07
2019-03-01T13:12:34.180Z,6.07
2019-03-01T13:13:34.693Z,5.99
2019-03-01T13:14:36.661Z,6.04
2019-03-01T13:15:35.130Z,6.05
2019-03-01T13:16:34.127Z,5.94
2019-03-01T13:17:37.216Z,5.98
2019-03-01T13:18:34.110Z,6.08
2019-03-01T13:19:34.128Z,6.04